sensor_id;sensor_type;location;lat;lon;timestamp;P1;durP1;ratioP1;P2;durP2;ratioP2
24090;SDS011;12272;52.426;17.100;2023-07-20T00:02:19;4.63;;;2.83;;
24090;SDS011;12272;52.426;17.100;2023-07-20T00:07:38;4.63;;;3.45;;
24090;SDS011;12272;52.426;17.100;2023-07-20T00:12:41;3.45;;;2.53;;
24090;SDS011;12272;52.426;17.100;2023-07-20T00:17:49;5.45;;;2.75;;
24090;SDS011;12272;52.426;17.100;2023-07-20T00:22:52;4.82;;;2.53;;
24090;SDS011;12272;52.426;17.100;2023-07-20T00:27:57;5.28;;;3.42;;
24090;SDS011;12272;52.426;17.100;2023-07-20T00:32:59;3.65;;;2.63;;
24090;SDS011;12272;52.426;17.100;2023-07-20T00:38:02;6.65;;;3.15;;
24090;SDS011;12272;52.426;17.100;2023-07-20T00:43:04;5.03;;;2.95;;
24090;SDS011;12272;52.426;17.100;2023-07-20T00:48:08;5.03;;;3.55;;
24090;SDS011;12272;52.426;17.100;2023-07-20T00:53:11;4.10;;;3.13;;
24090;SDS011;12272;52.426;17.100;2023-07-20T00:58:13;3.80;;;2.42;;
24090;SDS011;12272;52.426;17.100;2023-07-20T01:03:16;6.28;;;3.53;;
24090;SDS011;12272;52.426;17.100;2023-07-20T01:08:24;4.55;;;3.10;;
24090;SDS011;12272;52.426;17.100;2023-07-20T01:13:34;4.20;;;3.00;;
24090;SDS011;12272;52.426;17.100;2023-07-20T01:18:38;4.70;;;3.78;;
24090;SDS011;12272;52.426;17.100;2023-07-20T01:28:49;4.38;;;3.17;;
24090;SDS011;12272;52.426;17.100;2023-07-20T01:34:15;6.38;;;3.92;;
24090;SDS011;12272;52.426;17.100;2023-07-20T01:39:20;3.58;;;2.78;;
24090;SDS011;12272;52.426;17.100;2023-07-20T01:44:24;7.15;;;4.78;;
24090;SDS011;12272;52.426;17.100;2023-07-20T01:49:27;3.95;;;3.45;;
24090;SDS011;12272;52.426;17.100;2023-07-20T01:54:29;5.78;;;4.70;;
24090;SDS011;12272;52.426;17.100;2023-07-20T01:59:32;6.60;;;4.15;;
24090;SDS011;12272;52.426;17.100;2023-07-20T02:04:35;7.55;;;4.35;;
24090;SDS011;12272;52.426;17.100;2023-07-20T02:09:37;6.25;;;3.13;;
24090;SDS011;12272;52.426;17.100;2023-07-20T02:14:42;7.45;;;5.30;;
24090;SDS011;12272;52.426;17.100;2023-07-20T02:19:44;6.95;;;4.32;;
24090;SDS011;12272;52.426;17.100;2023-07-20T02:24:47;6.40;;;4.78;;
24090;SDS011;12272;52.426;17.100;2023-07-20T02:29:51;2.72;;;2.28;;
24090;SDS011;12272;52.426;17.100;2023-07-20T02:34:53;3.72;;;3.10;;
24090;SDS011;12272;52.426;17.100;2023-07-20T02:39:57;4.05;;;2.58;;
24090;SDS011;12272;52.426;17.100;2023-07-20T02:44:59;2.60;;;2.30;;
24090;SDS011;12272;52.426;17.100;2023-07-20T02:50:06;2.55;;;2.17;;
24090;SDS011;12272;52.426;17.100;2023-07-20T02:55:09;2.40;;;2.10;;
24090;SDS011;12272;52.426;17.100;2023-07-20T03:00:12;3.03;;;2.72;;
24090;SDS011;12272;52.426;17.100;2023-07-20T03:05:17;3.60;;;2.97;;
24090;SDS011;12272;52.426;17.100;2023-07-20T03:10:20;7.15;;;3.88;;
24090;SDS011;12272;52.426;17.100;2023-07-20T03:15:22;4.00;;;3.50;;
24090;SDS011;12272;52.426;17.100;2023-07-20T03:20:25;2.80;;;2.00;;
24090;SDS011;12272;52.426;17.100;2023-07-20T03:25:28;6.78;;;3.05;;
24090;SDS011;12272;52.426;17.100;2023-07-20T03:30:31;4.50;;;3.22;;
24090;SDS011;12272;52.426;17.100;2023-07-20T03:35:34;4.53;;;2.40;;
24090;SDS011;12272;52.426;17.100;2023-07-20T03:40:38;3.35;;;2.20;;
24090;SDS011;12272;52.426;17.100;2023-07-20T03:45:41;3.83;;;2.83;;
24090;SDS011;12272;52.426;17.100;2023-07-20T03:50:47;2.78;;;1.95;;
24090;SDS011;12272;52.426;17.100;2023-07-20T03:55:51;2.45;;;2.25;;
24090;SDS011;12272;52.426;17.100;2023-07-20T04:00:54;4.35;;;2.22;;
24090;SDS011;12272;52.426;17.100;2023-07-20T04:05:58;2.60;;;2.40;;
24090;SDS011;12272;52.426;17.100;2023-07-20T04:11:01;2.72;;;2.50;;
24090;SDS011;12272;52.426;17.100;2023-07-20T04:16:04;2.17;;;1.80;;
24090;SDS011;12272;52.426;17.100;2023-07-20T04:21:07;5.63;;;3.92;;
24090;SDS011;12272;52.426;17.100;2023-07-20T04:26:11;5.32;;;3.53;;
24090;SDS011;12272;52.426;17.100;2023-07-20T04:31:15;4.30;;;1.60;;
24090;SDS011;12272;52.426;17.100;2023-07-20T04:36:19;3.33;;;3.05;;
24090;SDS011;12272;52.426;17.100;2023-07-20T04:41:22;2.30;;;1.83;;
24090;SDS011;12272;52.426;17.100;2023-07-20T04:46:29;2.40;;;2.13;;
24090;SDS011;12272;52.426;17.100;2023-07-20T04:51:35;1.58;;;1.45;;
24090;SDS011;12272;52.426;17.100;2023-07-20T04:56:38;4.30;;;3.78;;
24090;SDS011;12272;52.426;17.100;2023-07-20T05:01:43;3.67;;;2.85;;
24090;SDS011;12272;52.426;17.100;2023-07-20T05:06:47;1.60;;;1.50;;
24090;SDS011;12272;52.426;17.100;2023-07-20T05:11:49;3.58;;;2.30;;
24090;SDS011;12272;52.426;17.100;2023-07-20T05:16:52;1.95;;;1.65;;
24090;SDS011;12272;52.426;17.100;2023-07-20T05:21:55;3.55;;;2.38;;
24090;SDS011;12272;52.426;17.100;2023-07-20T05:26:58;3.58;;;2.97;;
24090;SDS011;12272;52.426;17.100;2023-07-20T05:32:01;2.58;;;1.95;;
24090;SDS011;12272;52.426;17.100;2023-07-20T05:37:05;2.10;;;1.85;;
24090;SDS011;12272;52.426;17.100;2023-07-20T05:42:15;5.25;;;3.70;;
24090;SDS011;12272;52.426;17.100;2023-07-20T05:47:18;2.08;;;1.88;;
24090;SDS011;12272;52.426;17.100;2023-07-20T05:52:21;4.53;;;3.10;;
24090;SDS011;12272;52.426;17.100;2023-07-20T05:57:23;2.97;;;2.00;;
24090;SDS011;12272;52.426;17.100;2023-07-20T06:02:26;7.45;;;3.40;;
24090;SDS011;12272;52.426;17.100;2023-07-20T06:07:28;2.75;;;2.30;;
24090;SDS011;12272;52.426;17.100;2023-07-20T06:12:31;2.05;;;1.85;;
24090;SDS011;12272;52.426;17.100;2023-07-20T06:17:34;2.22;;;1.95;;
24090;SDS011;12272;52.426;17.100;2023-07-20T06:22:40;1.65;;;1.55;;
24090;SDS011;12272;52.426;17.100;2023-07-20T06:27:43;3.53;;;2.60;;
24090;SDS011;12272;52.426;17.100;2023-07-20T06:32:46;5.03;;;3.17;;
24090;SDS011;12272;52.426;17.100;2023-07-20T06:37:49;3.83;;;3.47;;
24090;SDS011;12272;52.426;17.100;2023-07-20T06:42:52;7.32;;;2.42;;
24090;SDS011;12272;52.426;17.100;2023-07-20T06:47:57;3.10;;;2.72;;
24090;SDS011;12272;52.426;17.100;2023-07-20T06:53:00;1.75;;;1.50;;
24090;SDS011;12272;52.426;17.100;2023-07-20T06:58:09;3.33;;;2.25;;
24090;SDS011;12272;52.426;17.100;2023-07-20T07:03:13;3.63;;;2.40;;
24090;SDS011;12272;52.426;17.100;2023-07-20T07:08:15;2.28;;;1.90;;
24090;SDS011;12272;52.426;17.100;2023-07-20T07:13:19;2.00;;;1.50;;
24090;SDS011;12272;52.426;17.100;2023-07-20T07:18:23;3.33;;;1.75;;
24090;SDS011;12272;52.426;17.100;2023-07-20T07:23:26;2.35;;;1.88;;
24090;SDS011;12272;52.426;17.100;2023-07-20T07:28:29;1.60;;;1.50;;
24090;SDS011;12272;52.426;17.100;2023-07-20T07:33:31;1.73;;;1.58;;
24090;SDS011;12272;52.426;17.100;2023-07-20T07:38:34;2.53;;;1.70;;
24090;SDS011;12272;52.426;17.100;2023-07-20T07:43:42;4.32;;;1.40;;
24090;SDS011;12272;52.426;17.100;2023-07-20T07:48:45;2.28;;;2.05;;
24090;SDS011;12272;52.426;17.100;2023-07-20T07:53:47;1.70;;;1.60;;
24090;SDS011;12272;52.426;17.100;2023-07-20T07:58:51;1.88;;;1.67;;
24090;SDS011;12272;52.426;17.100;2023-07-20T08:03:54;1.90;;;1.70;;
24090;SDS011;12272;52.426;17.100;2023-07-20T08:08:56;2.17;;;1.92;;
24090;SDS011;12272;52.426;17.100;2023-07-20T08:13:59;1.75;;;1.60;;
24090;SDS011;12272;52.426;17.100;2023-07-20T08:19:04;1.83;;;1.25;;
24090;SDS011;12272;52.426;17.100;2023-07-20T08:24:07;3.97;;;1.85;;
24090;SDS011;12272;52.426;17.100;2023-07-20T08:29:09;2.58;;;1.30;;
24090;SDS011;12272;52.426;17.100;2023-07-20T08:34:12;2.65;;;1.40;;
24090;SDS011;12272;52.426;17.100;2023-07-20T08:39:31;2.65;;;1.70;;
24090;SDS011;12272;52.426;17.100;2023-07-20T08:44:33;3.63;;;1.50;;
24090;SDS011;12272;52.426;17.100;2023-07-20T08:49:36;1.98;;;1.45;;
24090;SDS011;12272;52.426;17.100;2023-07-20T08:54:41;1.60;;;1.50;;
24090;SDS011;12272;52.426;17.100;2023-07-20T08:59:44;1.52;;;1.23;;
24090;SDS011;12272;52.426;17.100;2023-07-20T09:04:47;2.03;;;1.38;;
24090;SDS011;12272;52.426;17.100;2023-07-20T09:09:51;3.45;;;1.67;;
24090;SDS011;12272;52.426;17.100;2023-07-20T09:14:56;1.90;;;1.65;;
24090;SDS011;12272;52.426;17.100;2023-07-20T09:20:03;3.03;;;1.88;;
24090;SDS011;12272;52.426;17.100;2023-07-20T09:25:19;3.15;;;2.03;;
24090;SDS011;12272;52.426;17.100;2023-07-20T09:30:49;5.20;;;2.00;;
24090;SDS011;12272;52.426;17.100;2023-07-20T09:36:04;2.67;;;1.23;;
24090;SDS011;12272;52.426;17.100;2023-07-20T09:41:27;1.38;;;1.05;;
24090;SDS011;12272;52.426;17.100;2023-07-20T09:46:48;1.30;;;1.20;;
24090;SDS011;12272;52.426;17.100;2023-07-20T09:52:00;2.03;;;1.25;;
24090;SDS011;12272;52.426;17.100;2023-07-20T09:57:09;3.85;;;1.02;;
24090;SDS011;12272;52.426;17.100;2023-07-20T10:02:20;1.77;;;1.10;;
24090;SDS011;12272;52.426;17.100;2023-07-20T10:07:40;2.80;;;1.50;;
24090;SDS011;12272;52.426;17.100;2023-07-20T10:13:17;1.55;;;0.90;;
24090;SDS011;12272;52.426;17.100;2023-07-20T10:23:35;1.98;;;1.40;;
24090;SDS011;12272;52.426;17.100;2023-07-20T10:28:39;1.80;;;1.30;;
24090;SDS011;12272;52.426;17.100;2023-07-20T10:33:44;1.92;;;1.50;;
24090;SDS011;12272;52.426;17.100;2023-07-20T10:38:55;1.85;;;1.27;;
24090;SDS011;12272;52.426;17.100;2023-07-20T10:44:25;2.58;;;1.90;;
24090;SDS011;12272;52.426;17.100;2023-07-20T10:49:28;1.40;;;1.30;;
24090;SDS011;12272;52.426;17.100;2023-07-20T10:54:39;2.38;;;1.40;;
24090;SDS011;12272;52.426;17.100;2023-07-20T10:59:52;3.45;;;1.65;;
24090;SDS011;12272;52.426;17.100;2023-07-20T11:10:45;1.90;;;1.65;;
24090;SDS011;12272;52.426;17.100;2023-07-20T11:16:19;2.20;;;1.55;;
24090;SDS011;12272;52.426;17.100;2023-07-20T11:21:37;3.72;;;1.48;;
24090;SDS011;12272;52.426;17.100;2023-07-20T11:27:04;1.77;;;1.60;;
24090;SDS011;12272;52.426;17.100;2023-07-20T11:32:08;4.75;;;1.48;;
24090;SDS011;12272;52.426;17.100;2023-07-20T11:37:14;2.95;;;2.40;;
24090;SDS011;12272;52.426;17.100;2023-07-20T11:42:23;2.65;;;1.65;;
24090;SDS011;12272;52.426;17.100;2023-07-20T11:47:29;1.48;;;1.23;;
24090;SDS011;12272;52.426;17.100;2023-07-20T11:52:32;0.98;;;0.95;;
24090;SDS011;12272;52.426;17.100;2023-07-20T11:58:00;2.30;;;2.10;;
24090;SDS011;12272;52.426;17.100;2023-07-20T12:03:30;1.77;;;1.40;;
24090;SDS011;12272;52.426;17.100;2023-07-20T12:09:01;1.00;;;1.00;;
24090;SDS011;12272;52.426;17.100;2023-07-20T12:14:07;1.55;;;1.30;;
24090;SDS011;12272;52.426;17.100;2023-07-20T12:19:24;1.55;;;1.00;;
24090;SDS011;12272;52.426;17.100;2023-07-20T12:24:28;1.40;;;1.30;;
24090;SDS011;12272;52.426;17.100;2023-07-20T12:29:34;1.30;;;1.15;;
24090;SDS011;12272;52.426;17.100;2023-07-20T12:34:38;1.23;;;1.08;;
24090;SDS011;12272;52.426;17.100;2023-07-20T12:39:42;2.20;;;1.40;;
24090;SDS011;12272;52.426;17.100;2023-07-20T12:44:49;1.27;;;0.98;;
24090;SDS011;12272;52.426;17.100;2023-07-20T12:49:56;1.27;;;1.17;;
24090;SDS011;12272;52.426;17.100;2023-07-20T12:55:03;0.70;;;0.40;;
24090;SDS011;12272;52.426;17.100;2023-07-20T13:00:14;1.17;;;1.08;;
24090;SDS011;12272;52.426;17.100;2023-07-20T13:05:23;2.35;;;1.02;;
24090;SDS011;12272;52.426;17.100;2023-07-20T13:10:43;1.30;;;1.20;;
24090;SDS011;12272;52.426;17.100;2023-07-20T13:15:47;1.45;;;1.10;;
24090;SDS011;12272;52.426;17.100;2023-07-20T13:20:53;2.22;;;0.68;;
24090;SDS011;12272;52.426;17.100;2023-07-20T13:25:56;0.70;;;0.57;;
24090;SDS011;12272;52.426;17.100;2023-07-20T13:31:03;0.60;;;0.60;;
24090;SDS011;12272;52.426;17.100;2023-07-20T13:36:16;0.95;;;0.85;;
24090;SDS011;12272;52.426;17.100;2023-07-20T13:41:27;0.95;;;0.80;;
24090;SDS011;12272;52.426;17.100;2023-07-20T13:46:31;1.20;;;1.10;;
24090;SDS011;12272;52.426;17.100;2023-07-20T13:51:54;2.05;;;0.90;;
24090;SDS011;12272;52.426;17.100;2023-07-20T13:57:03;2.47;;;0.90;;
24090;SDS011;12272;52.426;17.100;2023-07-20T14:02:07;0.88;;;0.73;;
24090;SDS011;12272;52.426;17.100;2023-07-20T14:07:16;1.42;;;1.30;;
24090;SDS011;12272;52.426;17.100;2023-07-20T14:12:21;0.90;;;0.77;;
24090;SDS011;12272;52.426;17.100;2023-07-20T14:17:28;0.80;;;0.80;;
24090;SDS011;12272;52.426;17.100;2023-07-20T14:22:34;1.15;;;1.00;;
24090;SDS011;12272;52.426;17.100;2023-07-20T14:27:44;1.10;;;1.00;;
24090;SDS011;12272;52.426;17.100;2023-07-20T14:32:47;1.23;;;1.13;;
24090;SDS011;12272;52.426;17.100;2023-07-20T14:37:53;2.15;;;0.95;;
24090;SDS011;12272;52.426;17.100;2023-07-20T14:42:56;1.02;;;0.93;;
24090;SDS011;12272;52.426;17.100;2023-07-20T14:48:00;1.40;;;0.90;;
24090;SDS011;12272;52.426;17.100;2023-07-20T14:53:07;1.83;;;0.70;;
24090;SDS011;12272;52.426;17.100;2023-07-20T14:58:11;1.38;;;0.90;;
24090;SDS011;12272;52.426;17.100;2023-07-20T15:03:18;0.93;;;0.73;;
24090;SDS011;12272;52.426;17.100;2023-07-20T15:08:21;1.23;;;0.75;;
24090;SDS011;12272;52.426;17.100;2023-07-20T15:13:25;0.85;;;0.85;;
24090;SDS011;12272;52.426;17.100;2023-07-20T15:18:31;1.20;;;0.90;;
24090;SDS011;12272;52.426;17.100;2023-07-20T15:23:50;1.60;;;0.73;;
24090;SDS011;12272;52.426;17.100;2023-07-20T15:28:58;1.23;;;1.00;;
24090;SDS011;12272;52.426;17.100;2023-07-20T15:34:01;0.40;;;0.40;;
24090;SDS011;12272;52.426;17.100;2023-07-20T15:39:03;0.73;;;0.50;;
24090;SDS011;12272;52.426;17.100;2023-07-20T15:44:12;0.50;;;0.50;;
24090;SDS011;12272;52.426;17.100;2023-07-20T15:49:15;0.75;;;0.75;;
24090;SDS011;12272;52.426;17.100;2023-07-20T15:54:18;1.00;;;0.40;;
24090;SDS011;12272;52.426;17.100;2023-07-20T15:59:21;0.47;;;0.40;;
24090;SDS011;12272;52.426;17.100;2023-07-20T16:04:25;0.63;;;0.60;;
24090;SDS011;12272;52.426;17.100;2023-07-20T16:09:29;1.30;;;0.50;;
24090;SDS011;12272;52.426;17.100;2023-07-20T16:14:32;1.20;;;0.90;;
24090;SDS011;12272;52.426;17.100;2023-07-20T16:19:57;1.15;;;0.60;;
24090;SDS011;12272;52.426;17.100;2023-07-20T16:25:00;1.90;;;0.70;;
24090;SDS011;12272;52.426;17.100;2023-07-20T16:30:04;1.48;;;0.90;;
24090;SDS011;12272;52.426;17.100;2023-07-20T16:35:10;0.80;;;0.80;;
24090;SDS011;12272;52.426;17.100;2023-07-20T16:40:13;1.13;;;1.02;;
24090;SDS011;12272;52.426;17.100;2023-07-20T16:45:23;0.88;;;0.60;;
24090;SDS011;12272;52.426;17.100;2023-07-20T16:50:26;1.45;;;1.30;;
24090;SDS011;12272;52.426;17.100;2023-07-20T16:55:37;1.27;;;0.68;;
24090;SDS011;12272;52.426;17.100;2023-07-20T17:00:42;0.60;;;0.52;;
24090;SDS011;12272;52.426;17.100;2023-07-20T17:05:45;1.38;;;0.60;;
24090;SDS011;12272;52.426;17.100;2023-07-20T17:10:47;2.80;;;0.73;;
24090;SDS011;12272;52.426;17.100;2023-07-20T17:15:50;0.57;;;0.52;;
24090;SDS011;12272;52.426;17.100;2023-07-20T17:20:53;0.70;;;0.70;;
24090;SDS011;12272;52.426;17.100;2023-07-20T17:25:55;0.43;;;0.43;;
24090;SDS011;12272;52.426;17.100;2023-07-20T17:31:01;0.68;;;0.50;;
24090;SDS011;12272;52.426;17.100;2023-07-20T17:36:04;1.33;;;0.60;;
24090;SDS011;12272;52.426;17.100;2023-07-20T17:41:10;0.70;;;0.50;;
24090;SDS011;12272;52.426;17.100;2023-07-20T17:46:16;1.20;;;1.05;;
24090;SDS011;12272;52.426;17.100;2023-07-20T17:51:22;0.70;;;0.70;;
24090;SDS011;12272;52.426;17.100;2023-07-20T17:56:25;1.48;;;0.75;;
24090;SDS011;12272;52.426;17.100;2023-07-20T18:01:28;0.55;;;0.55;;
24090;SDS011;12272;52.426;17.100;2023-07-20T18:06:30;0.82;;;0.60;;
24090;SDS011;12272;52.426;17.100;2023-07-20T18:11:33;1.10;;;0.73;;
24090;SDS011;12272;52.426;17.100;2023-07-20T18:16:39;0.70;;;0.50;;
24090;SDS011;12272;52.426;17.100;2023-07-20T18:21:42;2.65;;;0.80;;
24090;SDS011;12272;52.426;17.100;2023-07-20T18:26:45;1.52;;;0.82;;
24090;SDS011;12272;52.426;17.100;2023-07-20T18:31:47;0.75;;;0.70;;
24090;SDS011;12272;52.426;17.100;2023-07-20T18:36:50;1.67;;;0.75;;
24090;SDS011;12272;52.426;17.100;2023-07-20T18:41:56;0.50;;;0.50;;
24090;SDS011;12272;52.426;17.100;2023-07-20T18:47:00;1.05;;;0.68;;
24090;SDS011;12272;52.426;17.100;2023-07-20T18:52:05;0.80;;;0.57;;
24090;SDS011;12272;52.426;17.100;2023-07-20T18:57:08;3.60;;;0.98;;
24090;SDS011;12272;52.426;17.100;2023-07-20T19:02:11;0.73;;;0.52;;
24090;SDS011;12272;52.426;17.100;2023-07-20T19:07:14;0.57;;;0.50;;
24090;SDS011;12272;52.426;17.100;2023-07-20T19:12:17;9.10;;;0.88;;
24090;SDS011;12272;52.426;17.100;2023-07-20T19:17:20;3.08;;;0.60;;
24090;SDS011;12272;52.426;17.100;2023-07-20T19:22:26;0.68;;;0.40;;
24090;SDS011;12272;52.426;17.100;2023-07-20T19:27:29;0.75;;;0.52;;
24090;SDS011;12272;52.426;17.100;2023-07-20T19:32:32;1.20;;;0.80;;
24090;SDS011;12272;52.426;17.100;2023-07-20T19:37:35;1.00;;;0.68;;
24090;SDS011;12272;52.426;17.100;2023-07-20T19:42:37;0.95;;;0.47;;
24090;SDS011;12272;52.426;17.100;2023-07-20T19:47:40;3.63;;;0.73;;
24090;SDS011;12272;52.426;17.100;2023-07-20T19:52:43;0.57;;;0.50;;
24090;SDS011;12272;52.426;17.100;2023-07-20T19:57:49;2.72;;;1.00;;
24090;SDS011;12272;52.426;17.100;2023-07-20T20:02:52;4.65;;;1.05;;
24090;SDS011;12272;52.426;17.100;2023-07-20T20:07:58;2.67;;;1.38;;
24090;SDS011;12272;52.426;17.100;2023-07-20T20:13:01;1.10;;;0.50;;
24090;SDS011;12272;52.426;17.100;2023-07-20T20:18:04;0.70;;;0.60;;
24090;SDS011;12272;52.426;17.100;2023-07-20T20:23:17;1.55;;;0.88;;
24090;SDS011;12272;52.426;17.100;2023-07-20T20:28:22;0.93;;;0.90;;
24090;SDS011;12272;52.426;17.100;2023-07-20T20:33:26;1.50;;;1.27;;
24090;SDS011;12272;52.426;17.100;2023-07-20T20:38:29;1.50;;;1.30;;
24090;SDS011;12272;52.426;17.100;2023-07-20T20:43:32;1.98;;;1.25;;
24090;SDS011;12272;52.426;17.100;2023-07-20T20:48:35;1.60;;;1.13;;
24090;SDS011;12272;52.426;17.100;2023-07-20T20:53:40;1.50;;;0.80;;
24090;SDS011;12272;52.426;17.100;2023-07-20T20:58:43;1.15;;;0.90;;
24090;SDS011;12272;52.426;17.100;2023-07-20T21:03:45;1.45;;;0.90;;
24090;SDS011;12272;52.426;17.100;2023-07-20T21:08:48;1.08;;;0.93;;
24090;SDS011;12272;52.426;17.100;2023-07-20T21:13:53;2.95;;;1.08;;
24090;SDS011;12272;52.426;17.100;2023-07-20T21:18:56;3.63;;;0.90;;
24090;SDS011;12272;52.426;17.100;2023-07-20T21:23:59;3.30;;;1.17;;
24090;SDS011;12272;52.426;17.100;2023-07-20T21:29:02;3.00;;;1.48;;
24090;SDS011;12272;52.426;17.100;2023-07-20T21:34:04;2.35;;;1.40;;
24090;SDS011;12272;52.426;17.100;2023-07-20T21:39:07;1.92;;;1.20;;
24090;SDS011;12272;52.426;17.100;2023-07-20T21:44:10;1.40;;;1.10;;
24090;SDS011;12272;52.426;17.100;2023-07-20T21:49:14;1.92;;;1.30;;
24090;SDS011;12272;52.426;17.100;2023-07-20T21:54:17;5.80;;;1.45;;
24090;SDS011;12272;52.426;17.100;2023-07-20T21:59:23;5.70;;;1.50;;
24090;SDS011;12272;52.426;17.100;2023-07-20T22:04:26;2.00;;;1.05;;
24090;SDS011;12272;52.426;17.100;2023-07-20T22:09:30;1.35;;;1.25;;
24090;SDS011;12272;52.426;17.100;2023-07-20T22:14:34;1.92;;;1.52;;
24090;SDS011;12272;52.426;17.100;2023-07-20T22:19:36;2.47;;;1.20;;
24090;SDS011;12272;52.426;17.100;2023-07-20T22:24:40;3.90;;;1.70;;
24090;SDS011;12272;52.426;17.100;2023-07-20T22:29:47;1.70;;;1.42;;
24090;SDS011;12272;52.426;17.100;2023-07-20T22:34:50;2.15;;;1.85;;
24090;SDS011;12272;52.426;17.100;2023-07-20T22:39:53;3.08;;;1.50;;
24090;SDS011;12272;52.426;17.100;2023-07-20T22:44:56;1.77;;;1.48;;
24090;SDS011;12272;52.426;17.100;2023-07-20T22:49:59;3.22;;;1.40;;
24090;SDS011;12272;52.426;17.100;2023-07-20T22:55:03;1.60;;;1.15;;
24090;SDS011;12272;52.426;17.100;2023-07-20T23:00:06;1.58;;;1.25;;
24090;SDS011;12272;52.426;17.100;2023-07-20T23:05:10;1.13;;;0.93;;
24090;SDS011;12272;52.426;17.100;2023-07-20T23:10:15;1.75;;;1.60;;
24090;SDS011;12272;52.426;17.100;2023-07-20T23:15:18;1.55;;;1.45;;
24090;SDS011;12272;52.426;17.100;2023-07-20T23:20:21;2.80;;;1.88;;
24090;SDS011;12272;52.426;17.100;2023-07-20T23:25:24;2.60;;;1.33;;
24090;SDS011;12272;52.426;17.100;2023-07-20T23:30:27;1.50;;;1.40;;
24090;SDS011;12272;52.426;17.100;2023-07-20T23:35:30;2.20;;;2.00;;
24090;SDS011;12272;52.426;17.100;2023-07-20T23:40:34;1.98;;;1.80;;
24090;SDS011;12272;52.426;17.100;2023-07-20T23:45:36;4.68;;;1.40;;
24090;SDS011;12272;52.426;17.100;2023-07-20T23:50:39;3.22;;;1.75;;
24090;SDS011;12272;52.426;17.100;2023-07-20T23:55:45;1.77;;;1.10;;
